<?xml version="1.0" encoding="UTF-8" ?>
		<gpx
		 version="1.0"
		 xmlns:xsi="http://www.w3.org/2001/XMLSchema-instance"
		 xmlns="http://www.topografix.com/GPX/1/0"
		 xsi:schemaLocation="http://www.topografix.com/GPX/1/0 http://www.topografix.com/GPX/1/0/gpx.xsd"
		 creator="http://www.openrunner.com">
			<trk>
				<name>OR-7915837--Sinio:Salita dei Campioni - Gino Bartali</name>
			    <trkseg>
	
			<trkpt lat="44.596310" lon="8.033630">
			 <ele>336</ele>
			<time>2017-11-10T16:03:42Z</time>
			</trkpt>
		
			<trkpt lat="44.596200" lon="8.033780">
			 <ele>337</ele>
			<time>2017-11-10T16:05:42Z</time>
			</trkpt>
		
			<trkpt lat="44.596200" lon="8.033780">
			 <ele>337</ele>
			<time>2017-11-10T16:07:42Z</time>
			</trkpt>
		
			<trkpt lat="44.597230" lon="8.034730">
			 <ele>355</ele>
			<time>2017-11-10T16:09:42Z</time>
			</trkpt>
		
			<trkpt lat="44.597740" lon="8.035130">
			 <ele>363</ele>
			<time>2017-11-10T16:11:42Z</time>
			</trkpt>
		
			<trkpt lat="44.597880" lon="8.035230">
			 <ele>366</ele>
			<time>2017-11-10T16:13:42Z</time>
			</trkpt>
		
			<trkpt lat="44.597960" lon="8.035270">
			 <ele>367</ele>
			<time>2017-11-10T16:15:42Z</time>
			</trkpt>
		
			<trkpt lat="44.598040" lon="8.035270">
			 <ele>367</ele>
			<time>2017-11-10T16:17:42Z</time>
			</trkpt>
		
			<trkpt lat="44.598120" lon="8.035260">
			 <ele>366</ele>
			<time>2017-11-10T16:19:42Z</time>
			</trkpt>
		
			<trkpt lat="44.598190" lon="8.035280">
			 <ele>367</ele>
			<time>2017-11-10T16:21:42Z</time>
			</trkpt>
		
			<trkpt lat="44.598220" lon="8.035300">
			 <ele>367</ele>
			<time>2017-11-10T16:23:42Z</time>
			</trkpt>
		
			<trkpt lat="44.598230" lon="8.035330">
			 <ele>368</ele>
			<time>2017-11-10T16:25:42Z</time>
			</trkpt>
		
			<trkpt lat="44.598230" lon="8.035360">
			 <ele>369</ele>
			<time>2017-11-10T16:27:42Z</time>
			</trkpt>
		
			<trkpt lat="44.598220" lon="8.035390">
			 <ele>370</ele>
			<time>2017-11-10T16:29:42Z</time>
			</trkpt>
		
			<trkpt lat="44.598190" lon="8.035420">
			 <ele>372</ele>
			<time>2017-11-10T16:31:42Z</time>
			</trkpt>
		
			<trkpt lat="44.598140" lon="8.035440">
			 <ele>373</ele>
			<time>2017-11-10T16:33:42Z</time>
			</trkpt>
		
			<trkpt lat="44.597880" lon="8.035530">
			 <ele>377</ele>
			<time>2017-11-10T16:35:42Z</time>
			</trkpt>
		
			<trkpt lat="44.597410" lon="8.035610">
			 <ele>382</ele>
			<time>2017-11-10T16:37:42Z</time>
			</trkpt>
		
			<trkpt lat="44.597210" lon="8.035650">
			 <ele>384</ele>
			<time>2017-11-10T16:39:42Z</time>
			</trkpt>
		
			<trkpt lat="44.596930" lon="8.035640">
			 <ele>386</ele>
			<time>2017-11-10T16:41:42Z</time>
			</trkpt>
		
			<trkpt lat="44.596680" lon="8.035640">
			 <ele>388</ele>
			<time>2017-11-10T16:43:42Z</time>
			</trkpt>
		
			<trkpt lat="44.596610" lon="8.035650">
			 <ele>387</ele>
			<time>2017-11-10T16:45:42Z</time>
			</trkpt>
		
			<trkpt lat="44.596550" lon="8.035670">
			 <ele>386</ele>
			<time>2017-11-10T16:47:42Z</time>
			</trkpt>
		
			<trkpt lat="44.596520" lon="8.035680">
			 <ele>386</ele>
			<time>2017-11-10T16:49:42Z</time>
			</trkpt>
		
			<trkpt lat="44.596510" lon="8.035720">
			 <ele>387</ele>
			<time>2017-11-10T16:51:42Z</time>
			</trkpt>
		
			<trkpt lat="44.596500" lon="8.035750">
			 <ele>387</ele>
			<time>2017-11-10T16:53:42Z</time>
			</trkpt>
		
			<trkpt lat="44.596510" lon="8.035790">
			 <ele>388</ele>
			<time>2017-11-10T16:55:42Z</time>
			</trkpt>
		
			<trkpt lat="44.596530" lon="8.035810">
			 <ele>389</ele>
			<time>2017-11-10T16:57:42Z</time>
			</trkpt>
		
			<trkpt lat="44.596570" lon="8.035840">
			 <ele>391</ele>
			<time>2017-11-10T16:59:42Z</time>
			</trkpt>
		
			<trkpt lat="44.596620" lon="8.035850">
			 <ele>392</ele>
			<time>2017-11-10T17:01:42Z</time>
			</trkpt>
		
			<trkpt lat="44.596720" lon="8.035860">
			 <ele>393</ele>
			<time>2017-11-10T17:03:42Z</time>
			</trkpt>
		
			<trkpt lat="44.596770" lon="8.035870">
			 <ele>393</ele>
			<time>2017-11-10T17:05:42Z</time>
			</trkpt>
		
			<trkpt lat="44.596830" lon="8.035890">
			 <ele>393</ele>
			<time>2017-11-10T17:07:42Z</time>
			</trkpt>
		
			<trkpt lat="44.596890" lon="8.035930">
			 <ele>394</ele>
			<time>2017-11-10T17:09:42Z</time>
			</trkpt>
		
			<trkpt lat="44.597270" lon="8.036220">
			 <ele>398</ele>
			<time>2017-11-10T17:11:42Z</time>
			</trkpt>
		
			<trkpt lat="44.597330" lon="8.036280">
			 <ele>399</ele>
			<time>2017-11-10T17:13:42Z</time>
			</trkpt>
		
			<trkpt lat="44.597350" lon="8.036320">
			 <ele>400</ele>
			<time>2017-11-10T17:15:42Z</time>
			</trkpt>
		
			<trkpt lat="44.597350" lon="8.036380">
			 <ele>401</ele>
			<time>2017-11-10T17:17:42Z</time>
			</trkpt>
		
			<trkpt lat="44.597340" lon="8.036430">
			 <ele>402</ele>
			<time>2017-11-10T17:19:42Z</time>
			</trkpt>
		
			<trkpt lat="44.597310" lon="8.036450">
			 <ele>403</ele>
			<time>2017-11-10T17:21:42Z</time>
			</trkpt>
		
			<trkpt lat="44.597270" lon="8.036460">
			 <ele>403</ele>
			<time>2017-11-10T17:23:42Z</time>
			</trkpt>
		
			<trkpt lat="44.597220" lon="8.036460">
			 <ele>403</ele>
			<time>2017-11-10T17:25:42Z</time>
			</trkpt>
		
			<trkpt lat="44.597150" lon="8.036440">
			 <ele>403</ele>
			<time>2017-11-10T17:27:42Z</time>
			</trkpt>
		
			<trkpt lat="44.596870" lon="8.036410">
			 <ele>404</ele>
			<time>2017-11-10T17:29:42Z</time>
			</trkpt>
		
			<trkpt lat="44.596700" lon="8.036370">
			 <ele>404</ele>
			<time>2017-11-10T17:31:42Z</time>
			</trkpt>
		
			<trkpt lat="44.596630" lon="8.036360">
			 <ele>404</ele>
			<time>2017-11-10T17:33:42Z</time>
			</trkpt>
		
			<trkpt lat="44.596560" lon="8.036380">
			 <ele>402</ele>
			<time>2017-11-10T17:35:42Z</time>
			</trkpt>
		
			<trkpt lat="44.596510" lon="8.036410">
			 <ele>402</ele>
			<time>2017-11-10T17:37:42Z</time>
			</trkpt>
		
			<trkpt lat="44.596450" lon="8.036490">
			 <ele>402</ele>
			<time>2017-11-10T17:39:42Z</time>
			</trkpt>
		
			<trkpt lat="44.596260" lon="8.037050">
			 <ele>408</ele>
			<time>2017-11-10T17:41:42Z</time>
			</trkpt>
		
			<trkpt lat="44.596240" lon="8.037130">
			 <ele>409</ele>
			<time>2017-11-10T17:43:42Z</time>
			</trkpt>
		
			<trkpt lat="44.596220" lon="8.037200">
			 <ele>409</ele>
			<time>2017-11-10T17:45:42Z</time>
			</trkpt>
		
			<trkpt lat="44.596230" lon="8.037320">
			 <ele>411</ele>
			<time>2017-11-10T17:47:42Z</time>
			</trkpt>
		
			<trkpt lat="44.596280" lon="8.037500">
			 <ele>416</ele>
			<time>2017-11-10T17:49:42Z</time>
			</trkpt>
		
			<trkpt lat="44.596450" lon="8.037930">
			 <ele>424</ele>
			<time>2017-11-10T17:51:42Z</time>
			</trkpt>
		
			<trkpt lat="44.596530" lon="8.038180">
			 <ele>428</ele>
			<time>2017-11-10T17:53:42Z</time>
			</trkpt>
		
			<trkpt lat="44.596580" lon="8.038340">
			 <ele>430</ele>
			<time>2017-11-10T17:55:42Z</time>
			</trkpt>
		
			<trkpt lat="44.596590" lon="8.038440">
			 <ele>432</ele>
			<time>2017-11-10T17:57:42Z</time>
			</trkpt>
		
			<trkpt lat="44.596580" lon="8.038560">
			 <ele>433</ele>
			<time>2017-11-10T17:59:42Z</time>
			</trkpt>
		
			<trkpt lat="44.596540" lon="8.038650">
			 <ele>433</ele>
			<time>2017-11-10T18:01:42Z</time>
			</trkpt>
		
			<trkpt lat="44.596370" lon="8.039020">
			 <ele>434</ele>
			<time>2017-11-10T18:03:42Z</time>
			</trkpt>
		
			<trkpt lat="44.596350" lon="8.039110">
			 <ele>434</ele>
			<time>2017-11-10T18:05:42Z</time>
			</trkpt>
		
			<trkpt lat="44.596340" lon="8.039240">
			 <ele>435</ele>
			<time>2017-11-10T18:07:42Z</time>
			</trkpt>
		
			<trkpt lat="44.596350" lon="8.039350">
			 <ele>437</ele>
			<time>2017-11-10T18:09:42Z</time>
			</trkpt>
		
			<trkpt lat="44.596390" lon="8.039490">
			 <ele>440</ele>
			<time>2017-11-10T18:11:42Z</time>
			</trkpt>
		
			<trkpt lat="44.596520" lon="8.039780">
			 <ele>446</ele>
			<time>2017-11-10T18:13:42Z</time>
			</trkpt>
		
			<trkpt lat="44.596560" lon="8.039900">
			 <ele>449</ele>
			<time>2017-11-10T18:15:42Z</time>
			</trkpt>
		
			<trkpt lat="44.596580" lon="8.039980">
			 <ele>451</ele>
			<time>2017-11-10T18:17:42Z</time>
			</trkpt>
		
			<trkpt lat="44.596580" lon="8.040050">
			 <ele>452</ele>
			<time>2017-11-10T18:19:42Z</time>
			</trkpt>
		
			<trkpt lat="44.596560" lon="8.040150">
			 <ele>452</ele>
			<time>2017-11-10T18:21:42Z</time>
			</trkpt>
		
			<trkpt lat="44.596460" lon="8.040410">
			 <ele>454</ele>
			<time>2017-11-10T18:23:42Z</time>
			</trkpt>
		
			<trkpt lat="44.596120" lon="8.041190">
			 <ele>461</ele>
			<time>2017-11-10T18:25:42Z</time>
			</trkpt>
		
			<trkpt lat="44.596090" lon="8.041310">
			 <ele>462</ele>
			<time>2017-11-10T18:27:42Z</time>
			</trkpt>
		
			<trkpt lat="44.596070" lon="8.041400">
			 <ele>463</ele>
			<time>2017-11-10T18:29:42Z</time>
			</trkpt>
		
			<trkpt lat="44.596080" lon="8.041490">
			 <ele>464</ele>
			<time>2017-11-10T18:31:42Z</time>
			</trkpt>
		
			<trkpt lat="44.596110" lon="8.041630">
			 <ele>467</ele>
			<time>2017-11-10T18:33:42Z</time>
			</trkpt>
		
			<trkpt lat="44.596260" lon="8.041950">
			 <ele>471</ele>
			<time>2017-11-10T18:35:42Z</time>
			</trkpt>
		
			<trkpt lat="44.596380" lon="8.042280">
			 <ele>476</ele>
			<time>2017-11-10T18:37:42Z</time>
			</trkpt>
		
			<trkpt lat="44.596410" lon="8.042370">
			 <ele>477</ele>
			<time>2017-11-10T18:39:42Z</time>
			</trkpt>
		
			<trkpt lat="44.596430" lon="8.042480">
			 <ele>478</ele>
			<time>2017-11-10T18:41:42Z</time>
			</trkpt>
		
			<trkpt lat="44.596430" lon="8.042590">
			 <ele>478</ele>
			<time>2017-11-10T18:43:42Z</time>
			</trkpt>
		
			<trkpt lat="44.596400" lon="8.042690">
			 <ele>477</ele>
			<time>2017-11-10T18:45:42Z</time>
			</trkpt>
		
			<trkpt lat="44.596380" lon="8.042770">
			 <ele>477</ele>
			<time>2017-11-10T18:47:42Z</time>
			</trkpt>
		
			<trkpt lat="44.596370" lon="8.042820">
			 <ele>476</ele>
			<time>2017-11-10T18:49:42Z</time>
			</trkpt>
		
			<trkpt lat="44.596370" lon="8.042870">
			 <ele>476</ele>
			<time>2017-11-10T18:51:42Z</time>
			</trkpt>
		
			<trkpt lat="44.596370" lon="8.042910">
			 <ele>476</ele>
			<time>2017-11-10T18:53:42Z</time>
			</trkpt>
		
			<trkpt lat="44.596380" lon="8.042960">
			 <ele>477</ele>
			<time>2017-11-10T18:55:42Z</time>
			</trkpt>
		
			<trkpt lat="44.596390" lon="8.043000">
			 <ele>477</ele>
			<time>2017-11-10T18:57:42Z</time>
			</trkpt>
		
			<trkpt lat="44.596410" lon="8.043040">
			 <ele>478</ele>
			<time>2017-11-10T18:59:42Z</time>
			</trkpt>
		
			<trkpt lat="44.596460" lon="8.043110">
			 <ele>479</ele>
			<time>2017-11-10T19:01:42Z</time>
			</trkpt>
		
			<trkpt lat="44.596750" lon="8.043500">
			 <ele>487</ele>
			<time>2017-11-10T19:03:42Z</time>
			</trkpt>
		
			<trkpt lat="44.596810" lon="8.043600">
			 <ele>487</ele>
			<time>2017-11-10T19:05:42Z</time>
			</trkpt>
		
			<trkpt lat="44.596860" lon="8.043730">
			 <ele>487</ele>
			<time>2017-11-10T19:07:42Z</time>
			</trkpt>
		
			<trkpt lat="44.596930" lon="8.043960">
			 <ele>488</ele>
			<time>2017-11-10T19:09:42Z</time>
			</trkpt>
		
			<trkpt lat="44.597020" lon="8.044140">
			 <ele>490</ele>
			<time>2017-11-10T19:11:42Z</time>
			</trkpt>
		
			<trkpt lat="44.597100" lon="8.044290">
			 <ele>492</ele>
			<time>2017-11-10T19:13:42Z</time>
			</trkpt>
		
			<trkpt lat="44.597200" lon="8.044430">
			 <ele>495</ele>
			<time>2017-11-10T19:15:42Z</time>
			</trkpt>
		
			<trkpt lat="44.597350" lon="8.044690">
			 <ele>500</ele>
			<time>2017-11-10T19:17:42Z</time>
			</trkpt>
		
			<trkpt lat="44.597570" lon="8.045380">
			 <ele>511</ele>
			<time>2017-11-10T19:19:42Z</time>
			</trkpt>
		
			<trkpt lat="44.597660" lon="8.045690">
			 <ele>514</ele>
			<time>2017-11-10T19:21:42Z</time>
			</trkpt>
		
			<trkpt lat="44.597720" lon="8.045950">
			 <ele>516</ele>
			<time>2017-11-10T19:23:42Z</time>
			</trkpt>
		
			<trkpt lat="44.597740" lon="8.046050">
			 <ele>517</ele>
			<time>2017-11-10T19:25:42Z</time>
			</trkpt>
		
			<trkpt lat="44.597740" lon="8.046130">
			 <ele>518</ele>
			<time>2017-11-10T19:27:42Z</time>
			</trkpt>
		
			<trkpt lat="44.597720" lon="8.046190">
			 <ele>518</ele>
			<time>2017-11-10T19:29:42Z</time>
			</trkpt>
		
			<trkpt lat="44.597700" lon="8.046240">
			 <ele>519</ele>
			<time>2017-11-10T19:31:42Z</time>
			</trkpt>
		
			<trkpt lat="44.597630" lon="8.046290">
			 <ele>519</ele>
			<time>2017-11-10T19:33:42Z</time>
			</trkpt>
		
			<trkpt lat="44.597490" lon="8.046340">
			 <ele>520</ele>
			<time>2017-11-10T19:35:42Z</time>
			</trkpt>
		
			<trkpt lat="44.597420" lon="8.046350">
			 <ele>519</ele>
			<time>2017-11-10T19:37:42Z</time>
			</trkpt>
		
			<trkpt lat="44.597330" lon="8.046400">
			 <ele>517</ele>
			<time>2017-11-10T19:39:42Z</time>
			</trkpt>
		
			<trkpt lat="44.597290" lon="8.046430">
			 <ele>516</ele>
			<time>2017-11-10T19:41:42Z</time>
			</trkpt>
		
			<trkpt lat="44.597260" lon="8.046460">
			 <ele>516</ele>
			<time>2017-11-10T19:43:42Z</time>
			</trkpt>
		
			<trkpt lat="44.597240" lon="8.046490">
			 <ele>516</ele>
			<time>2017-11-10T19:45:42Z</time>
			</trkpt>
		
			<trkpt lat="44.597230" lon="8.046530">
			 <ele>516</ele>
			<time>2017-11-10T19:47:42Z</time>
			</trkpt>
		
			<trkpt lat="44.597220" lon="8.046570">
			 <ele>517</ele>
			<time>2017-11-10T19:49:42Z</time>
			</trkpt>
		
			<trkpt lat="44.597200" lon="8.046710">
			 <ele>518</ele>
			<time>2017-11-10T19:51:42Z</time>
			</trkpt>
		
			<trkpt lat="44.597180" lon="8.046850">
			 <ele>518</ele>
			<time>2017-11-10T19:53:42Z</time>
			</trkpt>
		
			<trkpt lat="44.597160" lon="8.046980">
			 <ele>518</ele>
			<time>2017-11-10T19:55:42Z</time>
			</trkpt>
		
			<trkpt lat="44.597140" lon="8.047140">
			 <ele>519</ele>
			<time>2017-11-10T19:57:42Z</time>
			</trkpt>
		
			<trkpt lat="44.597160" lon="8.047200">
			 <ele>520</ele>
			<time>2017-11-10T19:59:42Z</time>
			</trkpt>
		
			<trkpt lat="44.597170" lon="8.047240">
			 <ele>520</ele>
			<time>2017-11-10T20:01:42Z</time>
			</trkpt>
		
			<trkpt lat="44.597190" lon="8.047270">
			 <ele>521</ele>
			<time>2017-11-10T20:03:42Z</time>
			</trkpt>
		
			<trkpt lat="44.597200" lon="8.047310">
			 <ele>521</ele>
			<time>2017-11-10T20:05:42Z</time>
			</trkpt>
		
			<trkpt lat="44.597450" lon="8.047730">
			 <ele>530</ele>
			<time>2017-11-10T20:07:42Z</time>
			</trkpt>
		
			<trkpt lat="44.597630" lon="8.048090">
			 <ele>533</ele>
			<time>2017-11-10T20:09:42Z</time>
			</trkpt>
		
			<trkpt lat="44.597670" lon="8.048200">
			 <ele>534</ele>
			<time>2017-11-10T20:11:42Z</time>
			</trkpt>
		
			<trkpt lat="44.597700" lon="8.048340">
			 <ele>535</ele>
			<time>2017-11-10T20:13:42Z</time>
			</trkpt>
		
			<trkpt lat="44.597720" lon="8.048450">
			 <ele>535</ele>
			<time>2017-11-10T20:15:42Z</time>
			</trkpt>
		
			<trkpt lat="44.597750" lon="8.048590">
			 <ele>535</ele>
			<time>2017-11-10T20:17:42Z</time>
			</trkpt>
		
			<trkpt lat="44.597780" lon="8.048790">
			 <ele>535</ele>
			<time>2017-11-10T20:19:42Z</time>
			</trkpt>
		
			<trkpt lat="44.597810" lon="8.048950">
			 <ele>535</ele>
			<time>2017-11-10T20:21:42Z</time>
			</trkpt>
		
			<trkpt lat="44.597830" lon="8.049040">
			 <ele>536</ele>
			<time>2017-11-10T20:23:42Z</time>
			</trkpt>
		
			<trkpt lat="44.597870" lon="8.049150">
			 <ele>536</ele>
			<time>2017-11-10T20:25:42Z</time>
			</trkpt>
		
			<trkpt lat="44.598070" lon="8.049700">
			 <ele>541</ele>
			<time>2017-11-10T20:27:42Z</time>
			</trkpt>
		
			<trkpt lat="44.598200" lon="8.050050">
			 <ele>545</ele>
			<time>2017-11-10T20:29:42Z</time>
			</trkpt>
		
			<trkpt lat="44.598270" lon="8.050220">
			 <ele>548</ele>
			<time>2017-11-10T20:31:42Z</time>
			</trkpt>
		
			<trkpt lat="44.598310" lon="8.050380">
			 <ele>550</ele>
			<time>2017-11-10T20:33:42Z</time>
			</trkpt>
		
			<trkpt lat="44.598340" lon="8.050510">
			 <ele>551</ele>
			<time>2017-11-10T20:35:42Z</time>
			</trkpt>
		
			<trkpt lat="44.598360" lon="8.050600">
			 <ele>552</ele>
			<time>2017-11-10T20:37:42Z</time>
			</trkpt>
		
			<trkpt lat="44.598370" lon="8.050680">
			 <ele>552</ele>
			<time>2017-11-10T20:39:42Z</time>
			</trkpt>
		
			<trkpt lat="44.598370" lon="8.050880">
			 <ele>553</ele>
			<time>2017-11-10T20:41:42Z</time>
			</trkpt>
		
			<trkpt lat="44.598370" lon="8.050920">
			 <ele>553</ele>
			<time>2017-11-10T20:43:42Z</time>
			</trkpt>
		
			<trkpt lat="44.598410" lon="8.051850">
			 <ele>560</ele>
			<time>2017-11-10T20:45:42Z</time>
			</trkpt>
		
			<trkpt lat="44.598430" lon="8.052330">
			 <ele>564</ele>
			<time>2017-11-10T20:47:42Z</time>
			</trkpt>
		
			<trkpt lat="44.598430" lon="8.052550">
			 <ele>566</ele>
			<time>2017-11-10T20:49:42Z</time>
			</trkpt>
		
			<trkpt lat="44.598440" lon="8.052720">
			 <ele>567</ele>
			<time>2017-11-10T20:51:42Z</time>
			</trkpt>
		
			<trkpt lat="44.598450" lon="8.052810">
			 <ele>567</ele>
			<time>2017-11-10T20:53:42Z</time>
			</trkpt>
		
			<trkpt lat="44.598460" lon="8.052940">
			 <ele>568</ele>
			<time>2017-11-10T20:55:42Z</time>
			</trkpt>
		
			<trkpt lat="44.598500" lon="8.053120">
			 <ele>569</ele>
			<time>2017-11-10T20:57:42Z</time>
			</trkpt>
		
			<trkpt lat="44.598580" lon="8.053480">
			 <ele>571</ele>
			<time>2017-11-10T20:59:42Z</time>
			</trkpt>
		
			<trkpt lat="44.598680" lon="8.053870">
			 <ele>574</ele>
			<time>2017-11-10T21:01:42Z</time>
			</trkpt>
		
			<trkpt lat="44.598700" lon="8.053950">
			 <ele>575</ele>
			<time>2017-11-10T21:03:42Z</time>
			</trkpt>
		
			<trkpt lat="44.598710" lon="8.054020">
			 <ele>575</ele>
			<time>2017-11-10T21:05:42Z</time>
			</trkpt>
		
			<trkpt lat="44.598720" lon="8.054080">
			 <ele>576</ele>
			<time>2017-11-10T21:07:42Z</time>
			</trkpt>
		
			<trkpt lat="44.598730" lon="8.054140">
			 <ele>576</ele>
			<time>2017-11-10T21:09:42Z</time>
			</trkpt>
		
			<trkpt lat="44.598720" lon="8.054260">
			 <ele>577</ele>
			<time>2017-11-10T21:11:42Z</time>
			</trkpt>
		
			<trkpt lat="44.598710" lon="8.054350">
			 <ele>578</ele>
			<time>2017-11-10T21:13:42Z</time>
			</trkpt>
		
			<trkpt lat="44.598690" lon="8.054460">
			 <ele>579</ele>
			<time>2017-11-10T21:15:42Z</time>
			</trkpt>
		
			<trkpt lat="44.598670" lon="8.054530">
			 <ele>580</ele>
			<time>2017-11-10T21:17:42Z</time>
			</trkpt>
		
			<trkpt lat="44.598630" lon="8.054660">
			 <ele>581</ele>
			<time>2017-11-10T21:19:42Z</time>
			</trkpt>
		
			<trkpt lat="44.598550" lon="8.054880">
			 <ele>583</ele>
			<time>2017-11-10T21:21:42Z</time>
			</trkpt>
		
			<trkpt lat="44.598520" lon="8.055010">
			 <ele>585</ele>
			<time>2017-11-10T21:23:42Z</time>
			</trkpt>
		
			<trkpt lat="44.598520" lon="8.055040">
			 <ele>585</ele>
			<time>2017-11-10T21:25:42Z</time>
			</trkpt>
		
			<trkpt lat="44.598520" lon="8.055080">
			 <ele>585</ele>
			<time>2017-11-10T21:27:42Z</time>
			</trkpt>
		
			<trkpt lat="44.598520" lon="8.055140">
			 <ele>586</ele>
			<time>2017-11-10T21:29:42Z</time>
			</trkpt>
		
			<trkpt lat="44.598530" lon="8.055180">
			 <ele>586</ele>
			<time>2017-11-10T21:31:42Z</time>
			</trkpt>
		
			<trkpt lat="44.598540" lon="8.055210">
			 <ele>587</ele>
			<time>2017-11-10T21:33:42Z</time>
			</trkpt>
		
			<trkpt lat="44.598540" lon="8.055220">
			 <ele>587</ele>
			<time>2017-11-10T21:35:42Z</time>
			</trkpt>
		
			<trkpt lat="44.598550" lon="8.055260">
			 <ele>587</ele>
			<time>2017-11-10T21:37:42Z</time>
			</trkpt>
		
			<trkpt lat="44.598570" lon="8.055300">
			 <ele>588</ele>
			<time>2017-11-10T21:39:42Z</time>
			</trkpt>
		
			<trkpt lat="44.598870" lon="8.055780">
			 <ele>594</ele>
			<time>2017-11-10T21:41:42Z</time>
			</trkpt>
		
			<trkpt lat="44.598890" lon="8.055840">
			 <ele>594</ele>
			<time>2017-11-10T21:43:42Z</time>
			</trkpt>
		
			<trkpt lat="44.598900" lon="8.055880">
			 <ele>595</ele>
			<time>2017-11-10T21:45:42Z</time>
			</trkpt>
		
			<trkpt lat="44.598910" lon="8.055920">
			 <ele>595</ele>
			<time>2017-11-10T21:47:42Z</time>
			</trkpt>
		
			<trkpt lat="44.598910" lon="8.055960">
			 <ele>596</ele>
			<time>2017-11-10T21:49:42Z</time>
			</trkpt>
		
			<trkpt lat="44.598910" lon="8.056010">
			 <ele>596</ele>
			<time>2017-11-10T21:51:42Z</time>
			</trkpt>
		
			<trkpt lat="44.598890" lon="8.056070">
			 <ele>597</ele>
			<time>2017-11-10T21:53:42Z</time>
			</trkpt>
		
			<trkpt lat="44.598870" lon="8.056110">
			 <ele>597</ele>
			<time>2017-11-10T21:55:42Z</time>
			</trkpt>
		
			<trkpt lat="44.598830" lon="8.056230">
			 <ele>598</ele>
			<time>2017-11-10T21:57:42Z</time>
			</trkpt>
		
			<trkpt lat="44.598660" lon="8.056640">
			 <ele>601</ele>
			<time>2017-11-10T21:59:42Z</time>
			</trkpt>
		
			<trkpt lat="44.598650" lon="8.056710">
			 <ele>601</ele>
			<time>2017-11-10T22:01:42Z</time>
			</trkpt>
		
			<trkpt lat="44.598660" lon="8.056780">
			 <ele>602</ele>
			<time>2017-11-10T22:03:42Z</time>
			</trkpt>
		
			<trkpt lat="44.598670" lon="8.056840">
			 <ele>603</ele>
			<time>2017-11-10T22:05:42Z</time>
			</trkpt>
		
			<trkpt lat="44.598690" lon="8.056910">
			 <ele>604</ele>
			<time>2017-11-10T22:07:42Z</time>
			</trkpt>
		
			<trkpt lat="44.598860" lon="8.057220">
			 <ele>608</ele>
			<time>2017-11-10T22:09:42Z</time>
			</trkpt>
		
			<trkpt lat="44.598900" lon="8.057310">
			 <ele>609</ele>
			<time>2017-11-10T22:11:42Z</time>
			</trkpt>
		
			<trkpt lat="44.598910" lon="8.057370">
			 <ele>609</ele>
			<time>2017-11-10T22:13:42Z</time>
			</trkpt>
		
			<trkpt lat="44.598920" lon="8.057460">
			 <ele>610</ele>
			<time>2017-11-10T22:15:42Z</time>
			</trkpt>
		
			<trkpt lat="44.598910" lon="8.057530">
			 <ele>611</ele>
			<time>2017-11-10T22:17:42Z</time>
			</trkpt>
		
			<trkpt lat="44.598890" lon="8.057650">
			 <ele>612</ele>
			<time>2017-11-10T22:19:42Z</time>
			</trkpt>
		
			<trkpt lat="44.598790" lon="8.058100">
			 <ele>617</ele>
			<time>2017-11-10T22:21:42Z</time>
			</trkpt>
		
			<trkpt lat="44.598670" lon="8.058540">
			 <ele>621</ele>
			<time>2017-11-10T22:23:42Z</time>
			</trkpt>
		
			<trkpt lat="44.598610" lon="8.058720">
			 <ele>622</ele>
			<time>2017-11-10T22:25:42Z</time>
			</trkpt>
		
			<trkpt lat="44.598530" lon="8.058940">
			 <ele>624</ele>
			<time>2017-11-10T22:27:42Z</time>
			</trkpt>
		
			<trkpt lat="44.598450" lon="8.059090">
			 <ele>626</ele>
			<time>2017-11-10T22:29:42Z</time>
			</trkpt>
		
			<trkpt lat="44.598350" lon="8.059250">
			 <ele>627</ele>
			<time>2017-11-10T22:31:42Z</time>
			</trkpt>
		
			<trkpt lat="44.598140" lon="8.059540">
			 <ele>625</ele>
			<time>2017-11-10T22:33:42Z</time>
			</trkpt>
		
			<trkpt lat="44.598050" lon="8.059680">
			 <ele>624</ele>
			<time>2017-11-10T22:35:42Z</time>
			</trkpt>
		
			<trkpt lat="44.597980" lon="8.059750">
			 <ele>624</ele>
			<time>2017-11-10T22:37:42Z</time>
			</trkpt>
		
			<trkpt lat="44.597750" lon="8.059990">
			 <ele>626</ele>
			<time>2017-11-10T22:39:42Z</time>
			</trkpt>
		
			<trkpt lat="44.597620" lon="8.060120">
			 <ele>628</ele>
			<time>2017-11-10T22:41:42Z</time>
			</trkpt>
		
			<trkpt lat="44.597270" lon="8.060500">
			 <ele>629</ele>
			<time>2017-11-10T22:43:42Z</time>
			</trkpt>
		
			<trkpt lat="44.597230" lon="8.060560">
			 <ele>629</ele>
			<time>2017-11-10T22:45:42Z</time>
			</trkpt>
		
			<trkpt lat="44.597230" lon="8.060570">
			 <ele>629</ele>
			<time>2017-11-10T22:47:42Z</time>
			</trkpt>
		
			<trkpt lat="44.597210" lon="8.060620">
			 <ele>630</ele>
			<time>2017-11-10T22:49:42Z</time>
			</trkpt>
		
			<trkpt lat="44.597190" lon="8.060690">
			 <ele>630</ele>
			<time>2017-11-10T22:51:42Z</time>
			</trkpt>
		
			<trkpt lat="44.597170" lon="8.060810">
			 <ele>632</ele>
			<time>2017-11-10T22:53:42Z</time>
			</trkpt>
		
			<trkpt lat="44.597150" lon="8.061140">
			 <ele>634</ele>
			<time>2017-11-10T22:55:42Z</time>
			</trkpt>
		
			<trkpt lat="44.597140" lon="8.061390">
			 <ele>637</ele>
			<time>2017-11-10T22:57:42Z</time>
			</trkpt>
		
			<trkpt lat="44.597130" lon="8.061520">
			 <ele>638</ele>
			<time>2017-11-10T22:59:42Z</time>
			</trkpt>
		
			<trkpt lat="44.597120" lon="8.061610">
			 <ele>639</ele>
			<time>2017-11-10T23:01:42Z</time>
			</trkpt>
		
			<trkpt lat="44.597090" lon="8.061800">
			 <ele>640</ele>
			<time>2017-11-10T23:03:42Z</time>
			</trkpt>
		
			<trkpt lat="44.597050" lon="8.061970">
			 <ele>642</ele>
			<time>2017-11-10T23:05:42Z</time>
			</trkpt>
		
			<trkpt lat="44.596970" lon="8.062290">
			 <ele>646</ele>
			<time>2017-11-10T23:07:42Z</time>
			</trkpt>
		
			<trkpt lat="44.596940" lon="8.062460">
			 <ele>649</ele>
			<time>2017-11-10T23:09:42Z</time>
			</trkpt>
		
			<trkpt lat="44.596860" lon="8.062820">
			 <ele>652</ele>
			<time>2017-11-10T23:11:42Z</time>
			</trkpt>
		
			<trkpt lat="44.596780" lon="8.063130">
			 <ele>656</ele>
			<time>2017-11-10T23:13:42Z</time>
			</trkpt>
		
			<trkpt lat="44.596740" lon="8.063210">
			 <ele>658</ele>
			<time>2017-11-10T23:15:42Z</time>
			</trkpt>
		
			<trkpt lat="44.596710" lon="8.063250">
			 <ele>659</ele>
			<time>2017-11-10T23:17:42Z</time>
			</trkpt>
		
			<trkpt lat="44.596670" lon="8.063300">
			 <ele>661</ele>
			<time>2017-11-10T23:19:42Z</time>
			</trkpt>
		
			<trkpt lat="44.596580" lon="8.063400">
			 <ele>660</ele>
			<time>2017-11-10T23:21:42Z</time>
			</trkpt>
		
			<trkpt lat="44.596510" lon="8.063470">
			 <ele>660</ele>
			<time>2017-11-10T23:23:42Z</time>
			</trkpt>
		
			<trkpt lat="44.596330" lon="8.063650">
			 <ele>660</ele>
			<time>2017-11-10T23:25:42Z</time>
			</trkpt>
		
			<trkpt lat="44.596080" lon="8.063940">
			 <ele>662</ele>
			<time>2017-11-10T23:27:42Z</time>
			</trkpt>
		
			<trkpt lat="44.595860" lon="8.064220">
			 <ele>667</ele>
			<time>2017-11-10T23:29:42Z</time>
			</trkpt>
		
			<trkpt lat="44.595840" lon="8.064250">
			 <ele>667</ele>
			<time>2017-11-10T23:31:42Z</time>
			</trkpt>
		
			<trkpt lat="44.595810" lon="8.064310">
			 <ele>666</ele>
			<time>2017-11-10T23:33:42Z</time>
			</trkpt>
		
			<trkpt lat="44.595790" lon="8.064380">
			 <ele>666</ele>
			<time>2017-11-10T23:35:42Z</time>
			</trkpt>
		
			<trkpt lat="44.595760" lon="8.064510">
			 <ele>665</ele>
			<time>2017-11-10T23:37:42Z</time>
			</trkpt>
		
			<trkpt lat="44.595740" lon="8.064600">
			 <ele>665</ele>
			<time>2017-11-10T23:39:42Z</time>
			</trkpt>
		
			<trkpt lat="44.595730" lon="8.064650">
			 <ele>665</ele>
			<time>2017-11-10T23:41:42Z</time>
			</trkpt>
		
			<trkpt lat="44.595720" lon="8.064690">
			 <ele>665</ele>
			<time>2017-11-10T23:43:42Z</time>
			</trkpt>
		
			<trkpt lat="44.595680" lon="8.064760">
			 <ele>664</ele>
			<time>2017-11-10T23:45:42Z</time>
			</trkpt>
		
			<trkpt lat="44.595600" lon="8.064850">
			 <ele>664</ele>
			<time>2017-11-10T23:47:42Z</time>
			</trkpt>
		
			<trkpt lat="44.595580" lon="8.064890">
			 <ele>664</ele>
			<time>2017-11-10T23:49:42Z</time>
			</trkpt>
		
			<trkpt lat="44.595530" lon="8.065000">
			 <ele>663</ele>
			<time>2017-11-10T23:51:42Z</time>
			</trkpt>
		
			<trkpt lat="44.595440" lon="8.065160">
			 <ele>661</ele>
			<time>2017-11-10T23:53:42Z</time>
			</trkpt>
		
			<trkpt lat="44.595270" lon="8.065810">
			 <ele>658</ele>
			<time>2017-11-10T23:55:42Z</time>
			</trkpt>
		
			<trkpt lat="44.595270" lon="8.065810">
			 <ele>658</ele>
			<time>2017-11-10T23:57:42Z</time>
			</trkpt>
		
			<trkpt lat="44.595220" lon="8.066070">
			 <ele>659</ele>
			<time>2017-11-10T23:59:42Z</time>
			</trkpt>
		
			<trkpt lat="44.595180" lon="8.066280">
			 <ele>660</ele>
			<time>2017-11-11T00:01:42Z</time>
			</trkpt>
		
				</trkseg>
			   </trk>
			 </gpx>
	